Time;durP1;ratioP1;P1;durP2;ratioP2;P2;SDS_P1;SDS_P2;PMS_P1;PMS_P2;Temp;Humidity;BMP_temperature;BMP_pressure;BME280_temperature;BME280_humidity;BME280_pressure;Samples;Min_cycle;Max_cycle;Signal;HPM_P1;HPM_P2
2024/04/06 00:02:11;;;;;;;;;;;15.00;83.20;;;;;;4997694;28;19930;-60
2024/04/06 00:04:44;;;;;;;;;;;15.00;83.30;;;;;;4988638;28;19929;-67
2024/04/06 00:07:18;;;;;;;;;;;15.00;83.40;;;;;;4989472;28;19958;-67
2024/04/06 00:09:50;;;;;;;;;;;14.90;83.50;;;;;;4988506;28;20072;-69
2024/04/06 00:12:24;;;;;;;;;;;14.90;83.60;;;;;;4993010;28;19968;-69
2024/04/06 00:14:56;;;;;;;;;;;14.90;83.60;;;;;;4986703;28;20009;-69
2024/04/06 00:17:36;;;;;;;;;;;14.90;83.70;;;;;;4989948;28;19933;-69
2024/04/06 00:20:10;;;;;;;;;;;14.90;83.70;;;;;;4997653;28;19937;-68
2024/04/06 00:22:44;;;;;;;;;;;14.90;83.80;;;;;;4992034;28;20043;-68
2024/04/06 00:25:16;;;;;;;;;;;14.90;83.80;;;;;;4989722;28;19930;-69
2024/04/06 00:27:49;;;;;;;;;;;14.80;83.90;;;;;;4993859;28;20440;-69
2024/04/06 00:30:21;;;;;;;;;;;14.90;84.00;;;;;;4995283;28;20426;-68
2024/04/06 00:33:00;;;;;;;;;;;14.80;84.00;;;;;;4999201;28;19926;-69
2024/04/06 00:35:34;;;;;;;;;;;14.80;83.90;;;;;;4986263;28;19955;-69
2024/04/06 00:38:08;;;;;;;;;;;14.80;84.00;;;;;;4998865;28;19929;-68
2024/04/06 00:40:40;;;;;;;;;;;14.80;84.10;;;;;;4998019;28;20485;-67
2024/04/06 00:43:07;;;;;;;;;;;14.80;84.20;;;;;;5000582;28;19925;-69
2024/04/06 00:45:39;;;;;;;;;;;14.80;84.20;;;;;;4998734;28;19988;-68
2024/04/06 00:48:06;;;;;;;;;;;14.80;84.20;;;;;;5001381;28;19929;-66
2024/04/06 00:50:39;;;;;;;;;;;14.80;84.30;;;;;;4992472;28;20036;-68
2024/04/06 00:53:13;;;;;;;;;;;14.80;84.30;;;;;;4989281;28;19929;-69
2024/04/06 00:55:45;;;;;;;;;;;14.80;84.40;;;;;;4993363;28;19929;-69
2024/04/06 00:58:19;;;;;;;;;;;14.80;84.40;;;;;;4996450;28;20474;-68
2024/04/06 01:00:52;;;;;;;;;;;14.80;84.50;;;;;;5000059;28;19929;-69
2024/04/06 01:03:25;;;;;;;;;;;14.80;84.60;;;;;;4999966;28;20376;-69
2024/04/06 01:05:59;;;;;;;;;;;14.70;84.60;;;;;;5001683;28;19936;-68
2024/04/06 01:08:32;;;;;;;;;;;14.70;84.60;;;;;;4998363;28;19984;-69
2024/04/06 01:11:12;;;;;;;;;;;14.70;84.70;;;;;;5000686;28;19961;-69
2024/04/06 01:13:44;;;;;;;;;;;14.70;84.80;;;;;;4998499;28;20020;-60
2024/04/06 01:16:17;;;;;;;;;;;14.70;84.80;;;;;;4999391;28;19930;-59
2024/04/06 01:18:49;;;;;;;;;;;14.70;84.80;;;;;;4996013;28;19930;-59
2024/04/06 01:21:26;;;;;;;;;;;14.70;84.90;;;;;;4992486;28;20375;-58
2024/04/06 01:24:02;;;;;;;;;;;14.70;85.00;;;;;;4991048;28;19977;-59
2024/04/06 01:26:36;;;;;;;;;;;14.70;85.00;;;;;;4990113;28;20303;-58
2024/04/06 01:29:08;;;;;;;;;;;14.60;85.00;;;;;;4995272;28;20026;-58
2024/04/06 01:31:41;;;;;;;;;;;14.70;85.00;;;;;;4998140;28;19935;-58
2024/04/06 01:34:13;;;;;;;;;;;14.60;85.10;;;;;;4991215;28;20011;-58
2024/04/06 01:36:46;;;;;;;;;;;14.60;85.10;;;;;;5000206;28;19980;-58
2024/04/06 01:39:26;;;;;;;;;;;14.60;85.20;;;;;;5001337;28;19993;-59
2024/04/06 01:41:59;;;;;;;;;;;14.60;85.20;;;;;;4998406;28;20017;-60
2024/04/06 01:44:31;;;;;;;;;;;14.60;85.20;;;;;;4992068;28;19940;-60
2024/04/06 01:47:04;;;;;;;;;;;14.60;85.30;;;;;;5001268;28;20348;-58
2024/04/06 01:49:36;;;;;;;;;;;14.60;85.30;;;;;;4997534;28;19949;-60
2024/04/06 01:52:09;;;;;;;;;;;14.60;85.40;;;;;;5000221;28;20394;-58
2024/04/06 01:54:42;;;;;;;;;;;14.50;85.40;;;;;;4999926;28;19930;-59
2024/04/06 01:57:16;;;;;;;;;;;14.60;85.40;;;;;;4998045;28;19933;-59
2024/04/06 01:59:48;;;;;;;;;;;14.60;85.40;;;;;;4999482;28;19925;-58
2024/04/06 02:02:28;;;;;;;;;;;14.50;85.40;;;;;;4999521;28;20296;-58
2024/04/06 02:05:00;;;;;;;;;;;14.50;85.50;;;;;;4996059;28;19976;-59
2024/04/06 02:07:33;;;;;;;;;;;14.50;85.50;;;;;;4998366;28;19929;-59
2024/04/06 02:10:06;;;;;;;;;;;14.50;85.60;;;;;;4998301;28;19929;-59
2024/04/06 02:12:40;;;;;;;;;;;14.50;85.60;;;;;;4997670;28;19926;-58
2024/04/06 02:15:12;;;;;;;;;;;14.50;85.60;;;;;;4995139;28;19952;-58
2024/04/06 02:17:45;;;;;;;;;;;14.50;85.60;;;;;;4995635;28;19930;-57
2024/04/06 02:20:24;;;;;;;;;;;14.50;85.60;;;;;;5000587;28;19952;-58
2024/04/06 02:22:57;;;;;;;;;;;14.40;85.60;;;;;;4999140;28;19976;-58
2024/04/06 02:25:31;;;;;;;;;;;14.50;85.60;;;;;;4999153;28;19933;-67
2024/04/06 02:28:04;;;;;;;;;;;14.50;85.50;;;;;;5000028;28;19932;-68
2024/04/06 02:30:37;;;;;;;;;;;14.50;85.50;;;;;;4997993;28;19948;-69
2024/04/06 02:33:10;;;;;;;;;;;14.40;85.60;;;;;;4996263;28;19933;-69
2024/04/06 02:35:42;;;;;;;;;;;14.40;85.60;;;;;;4999183;28;19934;-69
2024/04/06 02:38:15;;;;;;;;;;;14.40;85.60;;;;;;4999002;28;19976;-68
2024/04/06 02:40:49;;;;;;;;;;;14.40;85.60;;;;;;4997655;28;20012;-69
2024/04/06 02:43:22;;;;;;;;;;;14.40;85.60;;;;;;4993493;28;19960;-68
2024/04/06 02:45:54;;;;;;;;;;;14.40;85.50;;;;;;4990226;28;19934;-67
2024/04/06 02:48:21;;;;;;;;;;;14.40;85.60;;;;;;4990889;28;19936;-68
2024/04/06 02:50:53;;;;;;;;;;;14.30;85.70;;;;;;4990557;28;19940;-68
2024/04/06 02:53:26;;;;;;;;;;;14.40;85.70;;;;;;4990922;28;19936;-69
2024/04/06 02:55:59;;;;;;;;;;;14.40;85.60;;;;;;4993443;28;19944;-68
2024/04/06 02:58:33;;;;;;;;;;;14.30;85.60;;;;;;4990785;28;19930;-68
2024/04/06 03:01:05;;;;;;;;;;;14.30;85.60;;;;;;4993288;28;19930;-67
2024/04/06 03:03:32;;;;;;;;;;;14.30;85.50;;;;;;4992903;28;19926;-67
2024/04/06 03:06:04;;;;;;;;;;;14.30;85.60;;;;;;4990115;28;19933;-68
2024/04/06 03:08:37;;;;;;;;;;;14.30;85.60;;;;;;4995784;28;20439;-67
2024/04/06 03:11:16;;;;;;;;;;;14.30;85.50;;;;;;4990519;28;20008;-67
2024/04/06 03:13:57;;;;;;;;;;;14.20;85.50;;;;;;4988729;28;19941;-68
2024/04/06 03:16:29;;;;;;;;;;;14.20;85.60;;;;;;4989479;28;19934;-67
2024/04/06 03:19:02;;;;;;;;;;;14.20;85.50;;;;;;4997115;28;19934;-67
2024/04/06 03:21:35;;;;;;;;;;;14.10;85.60;;;;;;4996285;28;19929;-69
2024/04/06 03:24:08;;;;;;;;;;;14.10;85.50;;;;;;4994733;28;20364;-68
2024/04/06 03:26:42;;;;;;;;;;;14.10;85.60;;;;;;4992600;28;20467;-67
2024/04/06 03:29:15;;;;;;;;;;;13.90;85.70;;;;;;4990351;28;20438;-68
2024/04/06 03:31:47;;;;;;;;;;;14.00;85.70;;;;;;4990340;28;20514;-68
2024/04/06 03:41:30;;;;;;;;;;;13.90;86.00;;;;;;4994941;28;19979;-58
2024/04/06 03:44:06;;;;;;;;;;;13.80;86.10;;;;;;4993938;28;19934;-59
2024/04/06 03:46:38;;;;;;;;;;;13.70;86.20;;;;;;4985298;28;19925;-59
2024/04/06 03:49:11;;;;;;;;;;;13.70;86.30;;;;;;4992437;28;19931;-60
2024/04/06 03:51:43;;;;;;;;;;;13.70;86.40;;;;;;4987746;28;19926;-59
2024/04/06 03:54:16;;;;;;;;;;;13.70;86.40;;;;;;4995275;28;19975;-60
2024/04/06 03:56:48;;;;;;;;;;;13.60;86.50;;;;;;4997984;28;20016;-59
2024/04/06 03:59:22;;;;;;;;;;;13.60;86.40;;;;;;5002347;28;19926;-60
2024/04/06 04:02:02;;;;;;;;;;;13.60;86.30;;;;;;4985836;28;19932;-59
2024/04/06 04:04:35;;;;;;;;;;;13.60;86.30;;;;;;4996428;28;20333;-59
2024/04/06 04:07:07;;;;;;;;;;;13.50;86.20;;;;;;4998414;28;20312;-61
2024/04/06 04:09:40;;;;;;;;;;;13.50;86.10;;;;;;4999012;28;19929;-61
2024/04/06 04:12:12;;;;;;;;;;;13.40;86.20;;;;;;4995949;28;19930;-59
2024/04/06 04:14:46;;;;;;;;;;;13.50;86.10;;;;;;4993128;28;20280;-60
2024/04/06 04:17:19;;;;;;;;;;;13.40;86.10;;;;;;4999194;28;19973;-60
2024/04/06 04:19:52;;;;;;;;;;;13.30;86.20;;;;;;4995762;28;19984;-59
2024/04/06 04:22:31;;;;;;;;;;;13.30;86.20;;;;;;4996101;28;19936;-59
2024/04/06 04:25:04;;;;;;;;;;;13.30;86.20;;;;;;4991122;28;19933;-59
2024/04/06 04:27:36;;;;;;;;;;;13.30;86.20;;;;;;5004197;28;19929;-61
2024/04/06 04:30:11;;;;;;;;;;;13.30;86.10;;;;;;4994056;28;19934;-59
2024/04/06 04:32:43;;;;;;;;;;;13.30;86.10;;;;;;4995262;28;20295;-60
2024/04/06 04:35:16;;;;;;;;;;;13.20;86.10;;;;;;4999246;28;19930;-58
2024/04/06 04:37:48;;;;;;;;;;;13.20;86.20;;;;;;5001544;28;19930;-58
2024/04/06 04:40:21;;;;;;;;;;;13.20;86.10;;;;;;4999075;28;20296;-58
2024/04/06 04:42:53;;;;;;;;;;;13.10;86.20;;;;;;4997534;28;21122;-62
2024/04/06 04:45:28;;;;;;;;;;;13.10;86.20;;;;;;4997688;28;19934;-61
2024/04/06 04:47:53;;;;;;;;;;;13.10;86.40;;;;;;4995623;28;19934;-60
2024/04/06 04:50:27;;;;;;;;;;;13.10;86.40;;;;;;4999182;28;19956;-60
2024/04/06 04:52:59;;;;;;;;;;;13.10;86.50;;;;;;5000350;28;20312;-60
2024/04/06 04:55:32;;;;;;;;;;;13.10;86.70;;;;;;4996707;28;19929;-61
2024/04/06 04:58:04;;;;;;;;;;;13.00;86.60;;;;;;5001105;28;19926;-61
2024/04/06 05:00:38;;;;;;;;;;;13.00;86.70;;;;;;4991995;28;20604;-60
2024/04/06 05:03:11;;;;;;;;;;;13.00;86.70;;;;;;4997925;28;19980;-60
2024/04/06 05:05:44;;;;;;;;;;;13.00;86.80;;;;;;4991573;28;20365;-59
2024/04/06 05:08:10;;;;;;;;;;;13.10;86.80;;;;;;4994512;28;20280;-60
2024/04/06 05:10:44;;;;;;;;;;;13.10;86.90;;;;;;4995477;28;20748;-60
2024/04/06 05:13:23;;;;;;;;;;;13.10;86.90;;;;;;4999213;28;19926;-60
2024/04/06 05:15:58;;;;;;;;;;;13.10;86.80;;;;;;4996360;28;19931;-61
2024/04/06 05:18:30;;;;;;;;;;;13.10;86.80;;;;;;4991525;28;19929;-60
2024/04/06 05:21:09;;;;;;;;;;;13.10;86.90;;;;;;4993061;28;19934;-59
2024/04/06 05:23:42;;;;;;;;;;;13.10;86.80;;;;;;4998141;28;20396;-60
2024/04/06 05:26:15;;;;;;;;;;;13.20;86.80;;;;;;4999524;28;19941;-60
2024/04/06 05:28:48;;;;;;;;;;;13.10;86.70;;;;;;4994727;28;19925;-60
2024/04/06 05:31:22;;;;;;;;;;;13.10;86.70;;;;;;4994547;28;19932;-61
2024/04/06 05:33:55;;;;;;;;;;;13.10;86.70;;;;;;4986968;28;19926;-61
2024/04/06 05:36:28;;;;;;;;;;;13.20;86.70;;;;;;4994605;28;19930;-61
2024/04/06 05:39:00;;;;;;;;;;;13.10;86.60;;;;;;4994783;28;19940;-60
2024/04/06 05:41:33;;;;;;;;;;;13.20;86.60;;;;;;4992598;28;19948;-61
2024/04/06 05:44:05;;;;;;;;;;;13.20;86.70;;;;;;4995450;28;19925;-61
2024/04/06 05:46:39;;;;;;;;;;;13.20;86.60;;;;;;4992606;28;20016;-61
2024/04/06 05:49:12;;;;;;;;;;;13.20;86.60;;;;;;4993444;28;19929;-61
2024/04/06 05:51:45;;;;;;;;;;;13.20;86.50;;;;;;4992461;28;19926;-60
2024/04/06 05:54:17;;;;;;;;;;;13.20;86.60;;;;;;4995493;28;20012;-61
2024/04/06 05:56:50;;;;;;;;;;;13.20;86.60;;;;;;4999097;28;19933;-61
2024/04/06 05:59:22;;;;;;;;;;;13.20;86.60;;;;;;4995559;28;19926;-65
2024/04/06 06:01:56;;;;;;;;;;;13.20;86.60;;;;;;4987234;28;20052;-59
2024/04/06 06:04:29;;;;;;;;;;;13.20;86.50;;;;;;4987720;28;19930;-61
2024/04/06 06:07:09;;;;;;;;;;;13.20;86.70;;;;;;4986616;28;19929;-60
2024/04/06 06:09:41;;;;;;;;;;;13.30;86.70;;;;;;4991945;28;19940;-60
2024/04/06 06:12:15;;;;;;;;;;;13.30;86.70;;;;;;4986652;28;19937;-60
2024/04/06 06:14:47;;;;;;;;;;;13.40;86.60;;;;;;4998189;28;19929;-60
2024/04/06 06:17:21;;;;;;;;;;;13.50;86.40;;;;;;4985018;28;20397;-62
2024/04/06 06:19:54;;;;;;;;;;;13.50;86.40;;;;;;4987833;28;19932;-60
2024/04/06 06:22:29;;;;;;;;;;;13.60;86.40;;;;;;4984900;28;19930;-61
2024/04/06 06:25:03;;;;;;;;;;;13.60;86.30;;;;;;4999961;28;19930;-61
2024/04/06 06:27:36;;;;;;;;;;;13.60;86.30;;;;;;4998991;28;19925;-60
2024/04/06 06:30:08;;;;;;;;;;;13.70;86.20;;;;;;4993803;28;19957;-61
2024/04/06 06:32:42;;;;;;;;;;;13.70;86.10;;;;;;4990350;28;19936;-60
2024/04/06 06:35:15;;;;;;;;;;;13.90;85.70;;;;;;4993247;28;19971;-61
2024/04/06 06:37:48;;;;;;;;;;;14.00;85.60;;;;;;4991810;28;19975;-62
2024/04/06 06:40:20;;;;;;;;;;;14.10;85.90;;;;;;4992091;28;19933;-60
2024/04/06 06:42:53;;;;;;;;;;;14.20;85.40;;;;;;4992750;28;19976;-61
2024/04/06 06:45:25;;;;;;;;;;;14.30;85.40;;;;;;4992314;28;20550;-61
2024/04/06 06:47:59;;;;;;;;;;;14.40;85.20;;;;;;4992208;28;19933;-61
2024/04/06 06:50:32;;;;;;;;;;;14.50;85.20;;;;;;4991926;28;19934;-61
2024/04/06 06:53:06;;;;;;;;;;;14.60;85.10;;;;;;4992016;28;19934;-61
2024/04/06 06:55:38;;;;;;;;;;;14.70;84.90;;;;;;4989049;28;19956;-61
2024/04/06 06:58:11;;;;;;;;;;;14.80;84.60;;;;;;4994046;28;19929;-61
2024/04/06 07:00:45;;;;;;;;;;;14.90;84.60;;;;;;4994972;28;19937;-61
2024/04/06 07:03:19;;;;;;;;;;;15.10;84.40;;;;;;4994247;28;19926;-60
2024/04/06 07:05:52;;;;;;;;;;;15.20;84.10;;;;;;4993643;28;20016;-59
2024/04/06 07:08:25;;;;;;;;;;;15.30;83.80;;;;;;4993205;28;19936;-59
2024/04/06 07:11:01;;;;;;;;;;;15.40;83.60;;;;;;4995549;28;19933;-60
2024/04/06 07:13:34;;;;;;;;;;;15.50;83.40;;;;;;4993248;28;20129;-58
2024/04/06 07:16:11;;;;;;;;;;;15.60;83.30;;;;;;4992434;28;19934;-60
2024/04/06 07:18:52;;;;;;;;;;;15.60;83.10;;;;;;4992865;28;19937;-58
2024/04/06 07:21:24;;;;;;;;;;;15.70;82.70;;;;;;4989360;28;19925;-58
2024/04/06 07:23:51;;;;;;;;;;;15.80;82.50;;;;;;4995175;28;19933;-60
2024/04/06 07:26:24;;;;;;;;;;;15.90;82.30;;;;;;4995722;28;19978;-60
2024/04/06 07:28:57;;;;;;;;;;;16.00;82.20;;;;;;4992329;28;20016;-58
2024/04/06 07:31:30;;;;;;;;;;;16.20;81.90;;;;;;4987481;28;20561;-60
2024/04/06 07:34:03;;;;;;;;;;;16.30;81.70;;;;;;4995668;28;20380;-59
2024/04/06 07:36:37;;;;;;;;;;;16.40;81.20;;;;;;4983072;28;19976;-58
2024/04/06 07:39:10;;;;;;;;;;;16.60;80.50;;;;;;4990919;28;19973;-60
2024/04/06 07:41:43;;;;;;;;;;;16.60;80.20;;;;;;4988860;28;19937;-58
2024/04/06 07:44:09;;;;;;;;;;;16.70;79.50;;;;;;4989964;28;19992;-58
2024/04/06 07:46:42;;;;;;;;;;;16.90;78.40;;;;;;4990802;28;20559;-60
2024/04/06 07:49:16;;;;;;;;;;;17.00;77.70;;;;;;4993480;28;19931;-59
2024/04/06 07:51:49;;;;;;;;;;;17.10;77.10;;;;;;4989105;28;19933;-59
2024/04/06 07:54:21;;;;;;;;;;;17.10;76.30;;;;;;4986688;28;20013;-59
2024/04/06 07:56:54;;;;;;;;;;;17.20;75.90;;;;;;4993683;28;19934;-59
2024/04/06 07:59:26;;;;;;;;;;;17.30;75.50;;;;;;4988410;28;19926;-60
2024/04/06 08:01:59;;;;;;;;;;;17.40;75.30;;;;;;4988981;28;20510;-59
2024/04/06 08:04:32;;;;;;;;;;;17.40;74.80;;;;;;4986858;28;20036;-60
2024/04/06 08:07:07;;;;;;;;;;;17.50;74.70;;;;;;4989894;28;20233;-60
2024/04/06 08:09:39;;;;;;;;;;;17.50;74.80;;;;;;4989857;28;20554;-59
2024/04/06 08:12:13;;;;;;;;;;;17.60;74.90;;;;;;4988780;28;19936;-59
2024/04/06 08:14:46;;;;;;;;;;;17.60;74.60;;;;;;4991259;28;19940;-60
2024/04/06 08:17:18;;;;;;;;;;;17.70;74.50;;;;;;4987312;28;19926;-61
2024/04/06 08:19:59;;;;;;;;;;;17.90;74.00;;;;;;4989624;28;19931;-60
2024/04/06 08:22:31;;;;;;;;;;;17.90;72.90;;;;;;4989982;28;19949;-61
2024/04/06 08:25:05;;;;;;;;;;;18.10;72.60;;;;;;4990057;28;19925;-61
2024/04/06 08:27:37;;;;;;;;;;;18.20;71.90;;;;;;4993924;28;20598;-60
2024/04/06 08:30:12;;;;;;;;;;;18.30;71.40;;;;;;4988950;28;19958;-60
2024/04/06 08:32:45;;;;;;;;;;;18.50;70.50;;;;;;4992973;28;19988;-60
2024/04/06 08:35:20;;;;;;;;;;;18.60;69.70;;;;;;4992704;28;19929;-60
2024/04/06 08:37:46;;;;;;;;;;;18.80;69.20;;;;;;4980076;28;19930;-58
2024/04/06 08:40:19;;;;;;;;;;;19.10;68.80;;;;;;4987290;28;19933;-60
2024/04/06 08:42:55;;;;;;;;;;;19.30;67.70;;;;;;4995015;28;19933;-60
2024/04/06 08:45:28;;;;;;;;;;;19.50;67.10;;;;;;4994450;28;19933;-60
2024/04/06 08:48:00;;;;;;;;;;;19.60;66.50;;;;;;4999426;28;19939;-62
2024/04/06 08:53:50;;;;;;;;;;;19.70;64.10;;;;;;4987658;28;20016;-59
2024/04/06 08:56:22;;;;;;;;;;;19.70;62.90;;;;;;4994125;28;19973;-60
2024/04/06 08:58:56;;;;;;;;;;;19.70;62.20;;;;;;4999592;28;19937;-59
2024/04/06 09:01:28;;;;;;;;;;;19.70;62.10;;;;;;4999568;28;19930;-60
2024/04/06 09:04:01;;;;;;;;;;;19.70;61.60;;;;;;5000519;28;19925;-60
2024/04/06 09:06:33;;;;;;;;;;;19.60;61.00;;;;;;4997429;28;19933;-60
2024/04/06 09:09:08;;;;;;;;;;;19.70;60.50;;;;;;5000902;28;19937;-60
2024/04/06 09:11:42;;;;;;;;;;;19.90;59.90;;;;;;4999939;28;19930;-60
2024/04/06 09:14:15;;;;;;;;;;;20.00;60.40;;;;;;4999957;28;19934;-60
2024/04/06 09:16:54;;;;;;;;;;;20.10;60.60;;;;;;4998661;28;19929;-61
2024/04/06 09:19:27;;;;;;;;;;;20.10;59.80;;;;;;5000153;28;19930;-61
2024/04/06 09:22:00;;;;;;;;;;;20.10;58.90;;;;;;4989676;28;20384;-60
2024/04/06 09:24:35;;;;;;;;;;;20.10;58.20;;;;;;4997254;28;20361;-61
2024/04/06 09:27:08;;;;;;;;;;;20.10;59.40;;;;;;4991575;28;19973;-60
2024/04/06 09:29:47;;;;;;;;;;;20.10;59.20;;;;;;4987819;28;20036;-60
2024/04/06 09:32:22;;;;;;;;;;;20.20;58.90;;;;;;4994003;28;20037;-61
2024/04/06 09:34:55;;;;;;;;;;;20.40;58.90;;;;;;4990155;28;19934;-60
2024/04/06 09:37:29;;;;;;;;;;;20.60;59.50;;;;;;4988600;28;19965;-61
2024/04/06 09:40:06;;;;;;;;;;;20.90;59.80;;;;;;4988888;28;20053;-60
2024/04/06 09:42:38;;;;;;;;;;;21.10;59.50;;;;;;5001227;28;20016;-60
2024/04/06 09:45:12;;;;;;;;;;;21.30;59.80;;;;;;4998336;28;19980;-61
2024/04/06 09:47:44;;;;;;;;;;;21.50;59.60;;;;;;4997971;28;19929;-60
2024/04/06 09:50:18;;;;;;;;;;;21.60;58.60;;;;;;4996985;28;19934;-61
2024/04/06 09:52:50;;;;;;;;;;;21.80;58.70;;;;;;4986464;28;19937;-59
2024/04/06 09:55:25;;;;;;;;;;;22.00;58.00;;;;;;4990398;28;19930;-62
2024/04/06 09:57:57;;;;;;;;;;;22.10;58.60;;;;;;4988424;28;19952;-60
2024/04/06 10:00:31;;;;;;;;;;;22.30;56.70;;;;;;4986116;28;22002;-61
2024/04/06 10:03:03;;;;;;;;;;;22.40;57.70;;;;;;4988635;28;19930;-61
2024/04/06 10:05:38;;;;;;;;;;;22.50;57.10;;;;;;4975971;28;19929;-61
2024/04/06 10:08:11;;;;;;;;;;;22.60;56.30;;;;;;4986576;28;20018;-61
2024/04/06 10:10:46;;;;;;;;;;;22.80;54.90;;;;;;4987991;28;19925;-61
2024/04/06 10:13:18;;;;;;;;;;;23.00;52.60;;;;;;4979922;28;19965;-60
2024/04/06 10:16:03;;;;;;;;;;;23.10;50.20;;;;;;4995199;28;20580;-60
2024/04/06 10:18:38;;;;;;;;;;;23.20;51.70;;;;;;4995601;28;19926;-62
2024/04/06 10:21:13;;;;;;;;;;;23.30;52.80;;;;;;4995219;28;19948;-61
2024/04/06 10:23:45;;;;;;;;;;;23.40;50.70;;;;;;4997897;28;20300;-62
2024/04/06 10:26:22;;;;;;;;;;;23.50;49.40;;;;;;4998197;28;19926;-60
2024/04/06 10:28:55;;;;;;;;;;;23.60;50.00;;;;;;4998610;28;19992;-61
2024/04/06 10:31:28;;;;;;;;;;;23.70;49.80;;;;;;4997717;28;19925;-62
2024/04/06 10:34:01;;;;;;;;;;;23.80;51.50;;;;;;4993138;28;19929;-62
2024/04/06 10:36:28;;;;;;;;;;;23.80;50.80;;;;;;4997577;28;20428;-61
2024/04/06 10:39:00;;;;;;;;;;;23.80;49.70;;;;;;4995884;28;19988;-62
2024/04/06 10:41:35;;;;;;;;;;;23.90;48.60;;;;;;4991066;28;20503;-60
2024/04/06 10:44:01;;;;;;;;;;;23.90;51.20;;;;;;4995268;28;19926;-61
2024/04/06 10:46:34;;;;;;;;;;;24.00;51.50;;;;;;4996795;28;19992;-61
2024/04/06 10:49:08;;;;;;;;;;;24.00;51.10;;;;;;4995575;28;19961;-61
2024/04/06 10:51:41;;;;;;;;;;;24.10;50.30;;;;;;5000814;28;19982;-61
2024/04/06 10:54:07;;;;;;;;;;;24.20;50.90;;;;;;4995512;28;19926;-63
2024/04/06 10:56:42;;;;;;;;;;;24.20;50.10;;;;;;4997312;28;19933;-62
2024/04/06 10:59:09;;;;;;;;;;;24.20;51.50;;;;;;4992077;28;19926;-60
2024/04/06 11:01:49;;;;;;;;;;;24.20;52.50;;;;;;4993769;28;19936;-61
2024/04/06 11:04:23;;;;;;;;;;;24.30;50.90;;;;;;4996807;28;19930;-63
2024/04/06 11:06:57;;;;;;;;;;;24.30;50.60;;;;;;4999536;28;19984;-62
2024/04/06 11:09:36;;;;;;;;;;;24.40;50.00;;;;;;4994179;28;19984;-63
2024/04/06 11:12:11;;;;;;;;;;;24.40;49.80;;;;;;4996266;28;19929;-61
2024/04/06 11:14:48;;;;;;;;;;;24.50;50.80;;;;;;4994664;28;19940;-63
2024/04/06 11:17:28;;;;;;;;;;;24.50;52.30;;;;;;4984460;28;19929;-62
2024/04/06 11:20:02;;;;;;;;;;;24.50;52.20;;;;;;4992456;28;19948;-62
2024/04/06 11:22:38;;;;;;;;;;;24.40;53.20;;;;;;4995023;28;20396;-62
2024/04/06 11:25:05;;;;;;;;;;;24.50;53.80;;;;;;4997132;28;19973;-61
2024/04/06 11:27:46;;;;;;;;;;;24.50;51.70;;;;;;4997591;28;19932;-62
2024/04/06 11:30:20;;;;;;;;;;;24.50;52.80;;;;;;4986363;28;20343;-61
2024/04/06 11:32:48;;;;;;;;;;;24.50;53.70;;;;;;4999123;28;20295;-62
2024/04/06 11:35:21;;;;;;;;;;;24.40;51.60;;;;;;4996251;28;19935;-61
2024/04/06 11:37:54;;;;;;;;;;;24.30;53.40;;;;;;4996166;28;19930;-62
2024/04/06 11:40:20;;;;;;;;;;;24.30;53.60;;;;;;4997526;28;19932;-62
2024/04/06 11:42:55;;;;;;;;;;;24.30;52.70;;;;;;4998031;28;19932;-61
2024/04/06 11:45:29;;;;;;;;;;;24.20;53.50;;;;;;4996448;28;19929;-61
2024/04/06 11:48:01;;;;;;;;;;;24.10;51.70;;;;;;4994106;28;19929;-60
2024/04/06 11:50:34;;;;;;;;;;;24.10;50.20;;;;;;4990155;28;19937;-60
2024/04/06 11:53:09;;;;;;;;;;;24.00;51.10;;;;;;4992840;28;19933;-59
2024/04/06 11:55:42;;;;;;;;;;;24.00;49.80;;;;;;4986659;28;20011;-61
2024/04/06 11:58:16;;;;;;;;;;;24.00;52.90;;;;;;4993403;28;19932;-62
2024/04/06 12:00:49;;;;;;;;;;;24.00;54.30;;;;;;4996084;28;19933;-60
2024/04/06 12:03:28;;;;;;;;;;;24.00;54.00;;;;;;4993049;28;20384;-61
2024/04/06 12:06:02;;;;;;;;;;;24.00;54.40;;;;;;4984357;28;20681;-60
2024/04/06 12:08:28;;;;;;;;;;;23.90;53.50;;;;;;4993473;28;19929;-60
2024/04/06 12:11:01;;;;;;;;;;;23.90;54.90;;;;;;4992103;28;20446;-60
2024/04/06 12:13:35;;;;;;;;;;;23.90;52.70;;;;;;4994365;28;19933;-60
2024/04/06 12:16:08;;;;;;;;;;;24.00;50.90;;;;;;4988994;28;20422;-60
2024/04/06 12:18:40;;;;;;;;;;;24.00;53.30;;;;;;4997094;28;20276;-60
2024/04/06 12:21:13;;;;;;;;;;;24.00;53.00;;;;;;4997582;28;19930;-62
2024/04/06 12:23:45;;;;;;;;;;;24.00;54.40;;;;;;4996285;28;19966;-61
2024/04/06 12:26:18;;;;;;;;;;;23.90;54.70;;;;;;4993162;28;20287;-60
2024/04/06 12:28:52;;;;;;;;;;;23.80;53.90;;;;;;4993331;28;19926;-60
2024/04/06 12:31:26;;;;;;;;;;;23.60;54.20;;;;;;4990279;28;20482;-60
2024/04/06 12:33:58;;;;;;;;;;;23.60;53.90;;;;;;4995349;28;20436;-60
2024/04/06 12:36:31;;;;;;;;;;;23.60;55.50;;;;;;4994519;28;19930;-60
2024/04/06 12:39:08;;;;;;;;;;;23.70;54.80;;;;;;4992145;28;19930;-60
2024/04/06 12:41:41;;;;;;;;;;;23.60;53.90;;;;;;4997706;28;20012;-61
2024/04/06 12:44:15;;;;;;;;;;;23.70;55.20;;;;;;4994073;28;20388;-61
2024/04/06 12:46:48;;;;;;;;;;;23.80;55.00;;;;;;4994856;28;19929;-61
2024/04/06 12:49:27;;;;;;;;;;;23.90;55.50;;;;;;4996507;28;20328;-61
2024/04/06 12:52:00;;;;;;;;;;;24.00;55.30;;;;;;4993937;28;19932;-60
2024/04/06 12:54:32;;;;;;;;;;;23.90;55.50;;;;;;4994451;28;19987;-69
2024/04/06 12:57:39;;;;;;;;;;;23.80;55.10;;;;;;4986660;28;20675;-70
2024/04/06 13:00:21;;;;;;;;;;;23.70;55.50;;;;;;4989531;28;19932;-72
2024/04/06 13:02:53;;;;;;;;;;;23.70;55.20;;;;;;4998234;28;19926;-70
2024/04/06 13:05:28;;;;;;;;;;;23.70;55.60;;;;;;4995101;28;20296;-69
2024/04/06 13:08:00;;;;;;;;;;;23.70;55.40;;;;;;4996833;28;19961;-72
2024/04/06 13:10:33;;;;;;;;;;;23.60;55.70;;;;;;4994112;28;19933;-71
2024/04/06 13:13:06;;;;;;;;;;;23.60;56.50;;;;;;4991884;28;19932;-69
2024/04/06 13:15:42;;;;;;;;;;;23.70;56.20;;;;;;4984535;28;19934;-70
2024/04/06 13:18:14;;;;;;;;;;;23.60;56.10;;;;;;4993785;28;19961;-67
2024/04/06 13:20:50;;;;;;;;;;;23.60;56.50;;;;;;4997961;28;20463;-70
2024/04/06 13:23:22;;;;;;;;;;;23.60;56.00;;;;;;4993811;28;19993;-70
2024/04/06 13:25:49;;;;;;;;;;;23.60;55.40;;;;;;4995346;28;20339;-70
2024/04/06 13:28:21;;;;;;;;;;;23.60;55.50;;;;;;4991005;28;19937;-70
2024/04/06 13:30:52;;;;;;;;;;;23.60;55.60;;;;;;4994688;28;19940;-71
2024/04/06 13:33:24;;;;;;;;;;;23.60;55.60;;;;;;4993964;28;20391;-70
2024/04/06 13:35:57;;;;;;;;;;;23.50;54.50;;;;;;4999698;28;20380;-71
2024/04/06 13:38:30;;;;;;;;;;;23.50;55.60;;;;;;4997548;28;19926;-71
2024/04/06 13:41:04;;;;;;;;;;;23.40;56.40;;;;;;4995712;28;20012;-71
2024/04/06 13:43:29;;;;;;;;;;;23.30;56.40;;;;;;4998790;28;19932;-69
2024/04/06 13:46:04;;;;;;;;;;;23.20;56.50;;;;;;5000689;28;19933;-70
2024/04/06 13:48:37;;;;;;;;;;;23.20;56.30;;;;;;4999634;28;19944;-71
2024/04/06 13:51:17;;;;;;;;;;;23.20;56.20;;;;;;5000083;28;19976;-71
2024/04/06 13:53:50;;;;;;;;;;;23.10;56.30;;;;;;4999422;28;19975;-71
2024/04/06 13:56:22;;;;;;;;;;;23.10;56.10;;;;;;4997609;28;19925;-69
2024/04/06 13:58:55;;;;;;;;;;;23.10;55.80;;;;;;4998677;28;19936;-72
2024/04/06 14:01:29;;;;;;;;;;;23.10;55.90;;;;;;4998567;28;19933;-70
2024/04/06 14:04:02;;;;;;;;;;;23.10;56.20;;;;;;4999263;28;19973;-77
2024/04/06 14:06:34;;;;;;;;;;;23.10;56.50;;;;;;5001912;28;19929;-78
2024/04/06 14:09:08;;;;;;;;;;;23.10;56.80;;;;;;5003485;28;20292;-77
2024/04/06 14:11:39;;;;;;;;;;;23.10;57.20;;;;;;5001672;28;19926;-77
2024/04/06 14:14:16;;;;;;;;;;;23.10;56.80;;;;;;5002049;28;19932;-76
2024/04/06 14:16:56;;;;;;;;;;;23.10;56.40;;;;;;4997551;28;20025;-76
2024/04/06 14:19:29;;;;;;;;;;;23.00;56.80;;;;;;4999877;28;19930;-77
2024/04/06 14:21:55;;;;;;;;;;;23.00;56.90;;;;;;5000599;28;19925;-76
2024/04/06 14:24:28;;;;;;;;;;;23.00;57.10;;;;;;5002043;28;19929;-77
2024/04/06 14:27:01;;;;;;;;;;;23.00;57.10;;;;;;5000966;28;19926;-78
2024/04/06 14:29:33;;;;;;;;;;;23.00;56.90;;;;;;5002465;28;19929;-77
2024/04/06 14:32:08;;;;;;;;;;;23.00;57.20;;;;;;5004268;28;20257;-76
2024/04/06 14:34:35;;;;;;;;;;;23.00;57.60;;;;;;5005874;28;19932;-77
2024/04/06 14:37:13;;;;;;;;;;;23.00;57.40;;;;;;5002678;28;19948;-75
2024/04/06 14:39:46;;;;;;;;;;;23.10;55.70;;;;;;4997801;28;19933;-77
2024/04/06 14:42:18;;;;;;;;;;;23.10;56.10;;;;;;5000540;28;19950;-76
2024/04/06 14:44:51;;;;;;;;;;;23.10;54.30;;;;;;4997500;28;19925;-77
2024/04/06 14:47:25;;;;;;;;;;;23.10;55.70;;;;;;5002576;28;19926;-78
2024/04/06 14:49:58;;;;;;;;;;;23.00;57.00;;;;;;5000708;28;19926;-76
2024/04/06 14:52:24;;;;;;;;;;;23.00;57.50;;;;;;5004405;28;19932;-75
2024/04/06 14:54:58;;;;;;;;;;;22.90;57.30;;;;;;4997586;28;19980;-76
2024/04/06 14:57:30;;;;;;;;;;;22.90;56.00;;;;;;5003802;28;19926;-77
2024/04/06 15:00:04;;;;;;;;;;;22.80;56.00;;;;;;4999755;28;19926;-78
2024/04/06 15:02:44;;;;;;;;;;;22.70;56.80;;;;;;4998995;28;19936;-80